Map

Track Data

SID SEASON NUMBER BASIN SUBBASIN NAME ISO_TIME NATURE LAT LON WMO_WIND WMO_PRES WMO_AGENCY TRACK_TYPE DIST2LAND LANDFALL IFLAG USA_AGENCY USA_ATCF_ID USA_LAT USA_LON USA_RECORD USA_STATUS USA_WIND USA_PRES USA_SSHS USA_R34_NE USA_R34_SE USA_R34_SW USA_R34_NW USA_R50_NE USA_R50_SE USA_R50_SW USA_R50_NW USA_R64_NE USA_R64_SE USA_R64_SW USA_R64_NW USA_POCI USA_ROCI USA_RMW USA_EYE TOKYO_LAT TOKYO_LON TOKYO_GRADE TOKYO_WIND TOKYO_PRES TOKYO_R50_DIR TOKYO_R50_LONG TOKYO_R50_SHORT TOKYO_R30_DIR TOKYO_R30_LONG TOKYO_R30_SHORT TOKYO_LAND CMA_LAT CMA_LON CMA_CAT CMA_WIND CMA_PRES HKO_LAT HKO_LON HKO_CAT HKO_WIND HKO_PRES NEWDELHI_LAT NEWDELHI_LON NEWDELHI_GRADE NEWDELHI_WIND NEWDELHI_PRES NEWDELHI_CI NEWDELHI_DP NEWDELHI_POCI REUNION_LAT REUNION_LON REUNION_TYPE REUNION_WIND REUNION_PRES REUNION_TNUM REUNION_CI REUNION_RMW REUNION_R34_NE REUNION_R34_SE REUNION_R34_SW REUNION_R34_NW REUNION_R50_NE REUNION_R50_SE REUNION_R50_SW REUNION_R50_NW REUNION_R64_NE REUNION_R64_SE REUNION_R64_SW REUNION_R64_NW BOM_LAT BOM_LON BOM_TYPE BOM_WIND BOM_PRES BOM_TNUM BOM_CI BOM_RMW BOM_R34_NE BOM_R34_SE BOM_R34_SW BOM_R34_NW BOM_R50_NE BOM_R50_SE BOM_R50_SW BOM_R50_NW BOM_R64_NE BOM_R64_SE BOM_R64_SW BOM_R64_NW BOM_ROCI BOM_POCI BOM_EYE BOM_POS_METHOD BOM_PRES_METHOD NADI_LAT NADI_LON NADI_CAT NADI_WIND NADI_PRES WELLINGTON_LAT WELLINGTON_LON WELLINGTON_WIND WELLINGTON_PRES DS824_LAT DS824_LON DS824_STAGE DS824_WIND DS824_PRES TD9636_LAT TD9636_LON TD9636_STAGE TD9636_WIND TD9636_PRES TD9635_LAT TD9635_LON TD9635_WIND TD9635_PRES TD9635_ROCI NEUMANN_LAT NEUMANN_LON NEUMANN_CLASS NEUMANN_WIND NEUMANN_PRES MLC_LAT MLC_LON MLC_CLASS MLC_WIND MLC_PRES USA_GUST BOM_GUST BOM_GUST_PER REUNION_GUST REUNION_GUST_PER USA_SEAHGT USA_SEARAD_NE USA_SEARAD_SE USA_SEARAD_SW USA_SEARAD_NW STORM_SPEED STORM_DIR
1963174N14096 1963 54 NI BB NOT_NAMED 1963-06-22 18:00:00 TS 14.2000 96.3000 main 171 171 O________O____ jtwc_io IO041963 14.2000 96.3000 -1 14.2000 96.3000 TC 2 260
1963174N14096 1963 54 NI BB NOT_NAMED 1963-06-22 21:00:00 TS 14.1825 96.1950 main 181 179 P________P____ IO041963 14.1825 96.1950 -1 14.1825 96.1950 TC 2 270
1963174N14096 1963 54 NI BB NOT_NAMED 1963-06-23 00:00:00 TS 14.2000 96.1000 main 179 165 O________O____ jtwc_io IO041963 14.2000 96.1000 -1 14.2000 96.1000 TC 25 2 299
1963174N14096 1963 54 NI BB NOT_NAMED 1963-06-23 03:00:00 TS 14.2800 96.0133 main 165 151 P________PO___ IO041963 14.2775 96.0150 -1 14.2775 96.0150 TC 25 14.3000 96.0000 1 3 315
1963174N14096 1963 54 NI BB NOT_NAMED 1963-06-23 06:00:00 TS 14.4104 95.8851 main 151 124 O________OP___ jtwc_io IO041963 14.4000 95.9000 -1 14.4000 95.9000 TC 25 14.4518 95.8253 1 4 312
1963174N14096 1963 54 NI BB NOT_NAMED 1963-06-23 09:00:00 TS 14.5617 95.6893 main 124 111 P________PP___ IO041963 14.5500 95.7001 -1 14.5500 95.7001 TC 25 14.5927 95.6604 1 5 309
1963174N14096 1963 54 NI BB NOT_NAMED 1963-06-23 12:00:00 TS 14.7041 95.5051 main 111 100 O________OP___ jtwc_io IO041963 14.7000 95.5000 -1 14.7000 95.5000 TC 25 14.7124 95.5153 1 4 311
1963174N14096 1963 54 NI BB NOT_NAMED 1963-06-23 15:00:00 TS 14.8150 95.3850 main 100 89 P________PO___ IO041963 14.8225 95.3775 -1 14.8225 95.3775 TC 25 14.8000 95.4000 1 3 313
1963174N14096 1963 54 NI BB NOT_NAMED 1963-06-23 18:00:00 TS 14.8837 95.3059 main 89 89 O________OP___ jtwc_io IO041963 14.9000 95.3000 -1 14.9000 95.3000 TC 25 14.8510 95.3178 1 1 302
1963174N14096 1963 54 NI BB NOT_NAMED 1963-06-23 21:00:00 TS 14.8899 95.2631 main 89 89 P________PP___ IO041963 14.8924 95.2724 -1 14.8924 95.2724 TC 25 14.8847 95.2445 1 1 282
1963174N14096 1963 54 NI BB NOT_NAMED 1963-06-24 00:00:00 TS 14.9087 95.1830 main 90 78 O________OP___ jtwc_io IO041963 14.9000 95.2000 -1 14.9000 95.2000 TC 25 14.9260 95.1490 1 3 296
1963174N14096 1963 54 NI BB NOT_NAMED 1963-06-24 03:00:00 TS 15.0183 94.9917 main 78 59 P________PO___ IO041963 15.0275 94.9875 -1 15.0275 94.9875 TC 25 15.0000 95.0000 1 5 301
1963174N14096 1963 54 NI BB NOT_NAMED 1963-06-24 06:00:00 TS 15.1784 94.7192 main 64 55 O________OP___ jtwc_io IO041963 15.2000 94.7000 -1 15.2000 94.7000 TC 25 15.1352 94.7576 1 6 300
1963174N14096 1963 54 NI BB NOT_NAMED 1963-06-24 09:00:00 TS 15.3301 94.4250 main 55 39 P________PP___ IO041963 15.3425 94.4074 -1 15.3425 94.4074 TC 25 15.3052 94.4602 1 7 299
1963174N14096 1963 54 NI BB NOT_NAMED 1963-06-24 12:00:00 TS 15.4992 94.1109 main 46 46 O________OP___ jtwc_io IO041963 15.5000 94.1000 -1 15.5000 94.1000 TC 25 15.4976 94.1326 1 7 301
1963174N14096 1963 54 NI BB NOT_NAMED 1963-06-24 15:00:00 TS 15.6950 93.8000 main 54 54 P________PO___ IO041963 15.6925 93.8000 -1 15.6925 93.8000 TC 25 15.7000 93.8000 1 7 305
1963174N14096 1963 54 NI BB NOT_NAMED 1963-06-24 18:00:00 TS 15.8891 93.5266 main 75 75 O________OP___ jtwc_io IO041963 15.9000 93.5000 -1 15.9000 93.5000 TC 25 15.8672 93.5799 1 6 306
1963174N14096 1963 54 NI BB NOT_NAMED 1963-06-24 21:00:00 TS 16.0767 93.2591 main 96 96 P________PP___ IO041963 16.0924 93.2149 -1 16.0924 93.2149 TC 25 16.0454 93.3477 1 7 305
1963174N14096 1963 54 NI BB NOT_NAMED 1963-06-25 00:00:00 TS 16.2837 92.9473 main 142 142 O________OP___ jtwc_io IO041963 16.3000 92.9000 -1 16.3000 92.9000 TC 25 16.2510 93.0418 1 8 305
1963174N14096 1963 54 NI BB NOT_NAMED 1963-06-25 03:00:00 TS 16.5179 92.5930 main 179 179 P________PO___ IO041963 16.5269 92.5895 -1 16.5269 92.5895 TC 25 16.5000 92.6000 1 10 301
1963174N14096 1963 54 NI BB NOT_NAMED 1963-06-25 06:00:00 TS 16.8039 92.0508 main 236 236 O________OP___ jtwc_io IO041963 16.8000 92.1000 -1 16.8000 92.1000 TC 25 16.8118 91.9525 1 14 296
1963174N14096 1963 54 NI BB NOT_NAMED 1963-06-25 09:00:00 TS 17.1449 91.2337 main 336 332 P________PP___ IO041963 17.1355 91.2677 -1 17.1355 91.2677 TC 25 17.1637 91.1656 1 18 293
1963174N14096 1963 54 NI BB NOT_NAMED 1963-06-25 12:00:00 TS 17.5112 90.2986 main 396 396 O________OP___ jtwc_io IO041963 17.5000 90.3000 -1 17.5000 90.3000 TC 25 17.5335 90.2958 1 19 293
1963174N14096 1963 54 NI BB NOT_NAMED 1963-06-25 15:00:00 TS 17.8663 89.4331 main 390 306 P________PO___ IO041963 17.8494 89.4496 -1 17.8494 89.4496 TC 25 17.9000 89.4000 1 18 293
1963174N14096 1963 54 NI BB NOT_NAMED 1963-06-25 18:00:00 TS 18.2244 88.5723 main 306 207 O________OP___ jtwc_io IO041963 18.2000 88.6000 -1 18.2000 88.6000 TC 25 18.2733 88.5168 1 18 293
1963174N14096 1963 54 NI BB NOT_NAMED 1963-06-25 21:00:00 TS 18.5878 87.6656 main 207 129 P________PP___ IO041963 18.5650 87.6851 -1 18.5650 87.6851 TC 25 18.6334 87.6268 1 18 292
1963174N14096 1963 54 NI BB NOT_NAMED 1963-06-26 00:00:00 TS 18.9172 86.7911 main 129 70 O________OP___ jtwc_io IO041963 18.9000 86.8000 -1 18.9000 86.8000 TC 25 18.9517 86.7732 1 17 291
1963174N14096 1963 54 NI BB NOT_NAMED 1963-06-26 03:00:00 TS 19.1965 85.9983 main 70 22 P________PO___ IO041963 19.1947 85.9975 -1 19.1947 85.9975 TC 25 19.2000 86.0000 1 15 289
1963174N14096 1963 54 NI BB NOT_NAMED 1963-06-26 06:00:00 TS 19.3839 85.3158 main 15 0 O________OP___ jtwc_io IO041963 19.4000 85.3000 -1 19.4000 85.3000 TC 25 19.3597 85.3395 1 12 283
1963174N14096 1963 54 NI BB NOT_NAMED 1963-06-26 09:00:00 TS 19.4688 84.7414 main 0 0 P________PP___ IO041963 19.4852 84.7174 -1 19.4852 84.7174 TC 25 19.4469 84.7735 1 10 276
1963174N14096 1963 54 NI BB NOT_NAMED 1963-06-26 12:00:00 TS 19.4929 84.2354 main 0 0 O________OP___ jtwc_io IO041963 19.5000 84.2000 -1 19.5000 84.2000 TC 25 19.4858 84.2709 1 9 272
1963174N14096 1963 54 NI BB NOT_NAMED 1963-06-26 15:00:00 NR 19.5000 83.8000 main 0 __________O___ IO041963 -1 TC 19.5000 83.8000 1 8 271

About IBTrACS Database

This database is a web-friendly format of International Best Track Archive for Climate Stewardship (IBTrACS), a global best track data archive curated by NOAA dating back to 1842.

Updated: 2021-12-06